createdAt,value
2022-10-14T00:01:13.195Z,7.47
2022-10-14T00:03:40.308Z,6.10
2022-10-14T00:06:18.344Z,7.00
2022-10-14T00:08:47.501Z,7.60
2022-10-14T00:11:27.610Z,6.83
2022-10-14T00:13:56.143Z,6.20
2022-10-14T00:16:29.679Z,6.67
2022-10-14T00:19:00.313Z,7.50
2022-10-14T00:21:28.758Z,7.27
2022-10-14T00:23:56.366Z,7.70
2022-10-14T00:26:47.443Z,7.93
2022-10-14T00:29:18.788Z,7.00
2022-10-14T00:31:47.047Z,8.13
2022-10-14T00:34:16.075Z,8.23
2022-10-14T00:36:43.885Z,7.83
2022-10-14T00:39:11.292Z,6.90
2022-10-14T00:41:39.517Z,8.17
2022-10-14T00:44:15.499Z,8.03
2022-10-14T00:46:48.368Z,8.33
2022-10-14T00:49:21.074Z,7.40
2022-10-14T00:51:59.372Z,8.10
2022-10-14T00:54:32.327Z,7.60
2022-10-14T00:56:59.373Z,7.03
2022-10-14T00:59:26.336Z,7.20
2022-10-14T01:01:54.293Z,8.00
2022-10-14T01:04:21.519Z,7.40
2022-10-14T01:07:03.180Z,8.60
2022-10-14T01:09:47.858Z,8.10
2022-10-14T01:12:47.708Z,7.60
2022-10-14T01:15:41.020Z,8.27
2022-10-14T01:18:39.760Z,8.17
2022-10-14T01:21:16.848Z,7.83
2022-10-14T01:24:14.397Z,7.93
2022-10-14T01:27:05.362Z,7.80
2022-10-14T01:29:50.883Z,8.00
2022-10-14T01:32:23.558Z,8.93
2022-10-14T01:35:02.252Z,8.97
2022-10-14T01:37:31.791Z,8.67
2022-10-14T01:40:05.436Z,9.97
2022-10-14T01:42:36.493Z,9.03
2022-10-14T01:45:18.117Z,8.30
2022-10-14T01:47:49.119Z,8.30
2022-10-14T01:50:19.299Z,8.63
2022-10-14T01:52:56.009Z,9.20
2022-10-14T01:55:26.881Z,9.10
2022-10-14T01:57:56.567Z,8.83
2022-10-14T02:00:23.757Z,9.47
2022-10-14T02:02:50.802Z,9.77
2022-10-14T02:05:46.811Z,9.43
2022-10-14T02:08:39.480Z,9.07
2022-10-14T02:11:15.747Z,9.60
2022-10-14T02:14:09.301Z,9.37
2022-10-14T02:17:12.808Z,9.23
2022-10-14T02:20:07.782Z,9.57
2022-10-14T02:22:40.860Z,8.83
2022-10-14T02:25:16.128Z,8.90
2022-10-14T02:27:45.433Z,8.87
2022-10-14T02:30:13.298Z,9.63
2022-10-14T02:32:41.805Z,9.40
2022-10-14T02:35:11.580Z,9.37
2022-10-14T02:37:39.356Z,9.20
2022-10-14T02:40:11.678Z,9.03
2022-10-14T02:42:40.742Z,8.90
2022-10-14T02:45:11.311Z,10.53
2022-10-14T02:47:38.465Z,10.00
2022-10-14T02:50:05.846Z,9.50
2022-10-14T02:52:32.791Z,9.93
2022-10-14T02:54:59.748Z,9.90
2022-10-14T02:57:26.678Z,10.53
2022-10-14T02:59:53.834Z,9.13
2022-10-14T03:02:21.259Z,9.43
2022-10-14T03:04:48.687Z,9.43
2022-10-14T03:07:15.558Z,9.13
2022-10-14T03:09:42.528Z,8.80
2022-10-14T03:12:11.267Z,8.93
2022-10-14T03:14:38.158Z,8.17
2022-10-14T03:17:05.210Z,8.70
2022-10-14T03:19:32.358Z,9.83
2022-10-14T03:21:59.209Z,8.73
2022-10-14T03:24:26.264Z,8.97
2022-10-14T03:26:53.358Z,9.80
2022-10-14T03:29:20.700Z,9.57
2022-10-14T03:31:48.069Z,8.97
2022-10-14T03:34:15.059Z,9.23
2022-10-14T03:36:42.117Z,10.47
2022-10-14T03:39:10.783Z,9.57
2022-10-14T03:41:37.837Z,9.63
2022-10-14T03:44:05.099Z,10.43
2022-10-14T03:46:32.054Z,8.67
2022-10-14T03:48:59.164Z,9.50
2022-10-14T03:51:26.230Z,9.47
2022-10-14T03:53:53.087Z,9.83
2022-10-14T03:56:20.077Z,8.30
2022-10-14T03:58:47.087Z,8.80
2022-10-14T04:01:14.279Z,9.10
2022-10-14T04:03:41.683Z,9.60
2022-10-14T04:06:08.658Z,8.40
2022-10-14T04:08:35.505Z,8.97
2022-10-14T04:11:02.521Z,8.70
2022-10-14T04:13:29.984Z,9.63
2022-10-14T04:15:56.852Z,9.53
2022-10-14T04:18:23.808Z,8.47
2022-10-14T04:20:50.849Z,10.63
2022-10-14T04:23:17.678Z,8.60
2022-10-14T04:25:49.356Z,9.33
2022-10-14T04:28:16.349Z,9.23
2022-10-14T04:30:43.670Z,9.00
2022-10-14T04:33:11.096Z,8.80
2022-10-14T04:35:38.021Z,9.33
2022-10-14T04:38:05.106Z,9.20
2022-10-14T04:40:32.217Z,8.70
2022-10-14T04:42:59.592Z,9.13
2022-10-14T04:45:26.614Z,8.90
2022-10-14T04:47:53.577Z,9.40
2022-10-14T04:50:21.016Z,8.80
2022-10-14T04:52:48.068Z,9.87
2022-10-14T04:55:15.288Z,8.57
2022-10-14T04:57:44.044Z,9.13
2022-10-14T05:00:12.453Z,12.63
2022-10-14T05:02:39.480Z,8.43
2022-10-14T05:05:07.661Z,8.80
2022-10-14T05:07:35.129Z,8.43
2022-10-14T05:10:02.268Z,8.27
2022-10-14T05:12:29.398Z,8.67
2022-10-14T05:14:56.562Z,9.23
2022-10-14T05:17:23.567Z,8.50
2022-10-14T05:19:50.966Z,7.87
2022-10-14T05:22:18.000Z,9.73
2022-10-14T05:24:45.285Z,8.57
2022-10-14T05:27:14.571Z,8.63
2022-10-14T05:29:42.092Z,8.30
2022-10-14T05:32:09.284Z,10.47
2022-10-14T05:34:36.229Z,8.70
2022-10-14T05:37:03.789Z,9.47
2022-10-14T05:39:30.855Z,9.50
2022-10-14T05:41:57.786Z,9.13
2022-10-14T05:44:24.754Z,9.77
2022-10-14T05:46:52.138Z,8.70
2022-10-14T05:49:19.334Z,8.60
2022-10-14T05:51:46.654Z,8.53
2022-10-14T05:54:13.821Z,9.43
2022-10-14T05:56:40.821Z,8.83
2022-10-14T05:59:10.244Z,8.80
2022-10-14T06:01:38.450Z,7.97
2022-10-14T06:04:05.731Z,9.33
2022-10-14T06:06:33.086Z,9.50
2022-10-14T06:09:00.071Z,8.47
2022-10-14T06:11:27.147Z,10.97
2022-10-14T06:13:54.203Z,8.50
2022-10-14T06:16:21.174Z,10.40
2022-10-14T06:18:54.118Z,9.60
2022-10-14T06:21:24.185Z,9.53
2022-10-14T06:23:51.520Z,8.40
2022-10-14T06:26:21.287Z,9.80
2022-10-14T06:28:48.527Z,8.67
2022-10-14T06:31:15.551Z,9.30
2022-10-14T06:33:44.190Z,9.60
2022-10-14T06:36:12.217Z,9.87
2022-10-14T06:38:39.276Z,8.53
2022-10-14T06:41:07.521Z,8.07
2022-10-14T06:43:35.868Z,9.80
2022-10-14T06:46:05.845Z,9.03
2022-10-14T06:48:32.811Z,8.73
2022-10-14T06:51:01.216Z,10.60
2022-10-14T06:53:29.751Z,8.60
2022-10-14T06:56:02.023Z,8.67
2022-10-14T06:58:30.254Z,9.90
2022-10-14T07:01:03.306Z,8.07
2022-10-14T07:03:30.931Z,9.30
2022-10-14T07:05:58.020Z,8.00
2022-10-14T07:08:25.483Z,8.50
2022-10-14T07:10:52.514Z,7.97
2022-10-14T07:13:19.533Z,9.07
2022-10-14T07:15:49.932Z,9.70
2022-10-14T07:18:17.234Z,9.03
2022-10-14T07:20:44.288Z,7.60
2022-10-14T07:23:14.024Z,8.00
2022-10-14T07:25:41.329Z,9.07
2022-10-14T07:28:08.433Z,7.97
2022-10-14T07:30:35.584Z,8.03
2022-10-14T07:33:03.028Z,8.53
2022-10-14T07:35:30.787Z,7.63
2022-10-14T07:37:59.992Z,7.40
2022-10-14T07:40:27.630Z,8.00
2022-10-14T07:42:57.774Z,8.10
2022-10-14T07:45:25.345Z,7.60
2022-10-14T07:47:53.069Z,7.17
2022-10-14T07:50:20.564Z,6.90
2022-10-14T07:52:47.459Z,6.93
2022-10-14T07:55:16.025Z,6.90
2022-10-14T07:57:43.058Z,7.10
2022-10-14T08:00:10.936Z,7.30
2022-10-14T08:02:38.198Z,6.20
2022-10-14T08:05:33.072Z,6.63
2022-10-14T08:07:52.755Z,7.10
2022-10-14T08:10:19.801Z,6.50
2022-10-14T08:12:46.661Z,6.43
2022-10-14T08:15:13.893Z,7.10
2022-10-14T08:17:40.823Z,6.73
2022-10-14T08:20:08.569Z,6.93
2022-10-14T08:22:35.794Z,6.23
2022-10-14T08:25:02.761Z,7.93
2022-10-14T08:27:29.677Z,7.27
2022-10-14T08:29:56.719Z,6.87
2022-10-14T08:32:24.219Z,7.53
2022-10-14T08:34:52.186Z,6.47
2022-10-14T08:37:19.864Z,7.77
2022-10-14T08:39:46.821Z,7.50
2022-10-14T08:42:32.209Z,7.27
2022-10-14T08:45:10.524Z,6.23
2022-10-14T08:47:42.456Z,7.10
2022-10-14T08:50:20.592Z,7.07
2022-10-14T08:52:54.347Z,7.40
2022-10-14T08:55:30.173Z,6.07
2022-10-14T08:58:32.209Z,6.13
2022-10-14T09:01:07.690Z,6.47
2022-10-14T09:03:37.102Z,7.53
2022-10-14T09:06:28.523Z,7.20
2022-10-14T09:09:04.389Z,6.77
2022-10-14T09:11:37.313Z,6.97
2022-10-14T09:14:08.615Z,7.07
2022-10-14T09:16:39.135Z,6.47
2022-10-14T09:19:23.293Z,6.37
2022-10-14T09:21:53.737Z,6.67
2022-10-14T09:24:35.923Z,6.93
2022-10-14T09:27:07.099Z,7.03
2022-10-14T09:29:42.831Z,6.57
2022-10-14T09:32:14.713Z,6.10
2022-10-14T09:34:47.804Z,6.10
2022-10-14T09:37:35.180Z,6.77
2022-10-14T09:40:22.772Z,6.23
2022-10-14T09:43:12.246Z,6.43
2022-10-14T09:45:51.484Z,6.30
2022-10-14T09:48:40.171Z,5.40
2022-10-14T09:51:29.638Z,7.43
2022-10-14T09:54:07.316Z,5.40
2022-10-14T09:56:42.462Z,6.30
2022-10-14T09:59:22.804Z,5.97
2022-10-14T10:01:55.023Z,5.80
2022-10-14T10:04:48.065Z,5.57
2022-10-14T10:07:31.338Z,6.00
2022-10-14T10:10:01.122Z,6.67
2022-10-14T10:12:38.160Z,6.47
2022-10-14T10:15:07.234Z,6.27
2022-10-14T10:17:38.506Z,5.77
2022-10-14T10:20:32.020Z,5.60
2022-10-14T10:23:29.165Z,5.20
2022-10-14T10:25:58.762Z,6.13
2022-10-14T10:28:33.251Z,5.13
2022-10-14T10:31:29.344Z,5.53
2022-10-14T10:33:59.484Z,5.60
2022-10-14T10:36:36.106Z,5.20
2022-10-14T10:39:34.608Z,5.30
2022-10-14T10:42:06.993Z,4.93
2022-10-14T10:45:06.590Z,5.67
2022-10-14T10:47:42.405Z,5.13
2022-10-14T10:50:27.709Z,5.13
2022-10-14T10:53:18.586Z,5.33
2022-10-14T10:56:04.500Z,5.27
2022-10-14T10:58:55.336Z,4.80
2022-10-14T11:01:48.587Z,5.53
2022-10-14T11:05:01.200Z,5.60
2022-10-14T11:08:13.809Z,5.93
2022-10-14T11:11:36.049Z,5.47
2022-10-14T11:14:28.592Z,4.63
2022-10-14T11:17:12.436Z,5.67
2022-10-14T11:19:51.415Z,5.00
2022-10-14T11:22:43.756Z,5.30
2022-10-14T11:25:27.281Z,4.70
2022-10-14T11:28:16.810Z,5.60
2022-10-14T11:31:04.107Z,5.47
2022-10-14T11:33:51.391Z,5.40
2022-10-14T11:36:32.364Z,5.03
2022-10-14T11:39:33.254Z,5.47
2022-10-14T11:42:24.806Z,6.27
2022-10-14T11:45:10.489Z,5.70
2022-10-14T11:47:40.417Z,4.83
2022-10-14T11:50:26.822Z,5.60
2022-10-14T11:53:06.296Z,6.20
2022-10-14T11:55:40.193Z,6.10
2022-10-14T11:58:14.767Z,6.43
2022-10-14T12:00:45.154Z,6.20
2022-10-14T12:03:29.450Z,6.20
2022-10-14T12:06:05.098Z,7.57
2022-10-14T12:08:42.236Z,8.53
2022-10-14T12:11:25.912Z,6.50
2022-10-14T12:13:58.973Z,5.70
2022-10-14T12:16:26.267Z,5.67
2022-10-14T12:18:56.871Z,5.03
2022-10-14T12:21:29.649Z,5.90
2022-10-14T12:24:10.972Z,6.10
2022-10-14T12:26:55.278Z,5.43
2022-10-14T12:29:37.151Z,5.23
2022-10-14T12:32:04.100Z,5.23
2022-10-14T12:34:42.782Z,6.03
2022-10-14T12:37:50.431Z,4.80
2022-10-14T12:40:25.914Z,5.63
2022-10-14T12:43:00.134Z,3.80
2022-10-14T12:45:29.703Z,6.10
2022-10-14T12:48:23.982Z,5.40
2022-10-14T12:51:08.145Z,4.47
2022-10-14T12:53:37.169Z,5.27
2022-10-14T12:56:05.446Z,4.70
2022-10-14T12:58:41.510Z,4.97
2022-10-14T13:01:21.825Z,5.97
2022-10-14T13:04:05.848Z,5.43
2022-10-14T13:06:40.738Z,5.37
2022-10-14T13:09:15.537Z,5.57
2022-10-14T13:11:44.509Z,5.50
2022-10-14T13:14:53.758Z,30.10
2022-10-14T13:17:41.874Z,5.87
2022-10-14T13:20:34.205Z,4.67
2022-10-14T13:23:27.772Z,4.57
2022-10-14T13:26:20.202Z,4.83
2022-10-14T13:29:01.874Z,4.70
2022-10-14T13:32:02.795Z,6.20
2022-10-14T13:34:51.090Z,6.20
2022-10-14T13:37:44.930Z,4.40
2022-10-14T13:40:46.827Z,5.10
2022-10-14T13:43:29.683Z,4.60
2022-10-14T13:46:20.612Z,5.40
2022-10-14T13:48:53.115Z,5.43
2022-10-14T13:51:37.097Z,8.63
2022-10-14T13:54:23.702Z,5.47
2022-10-14T14:02:48.100Z,5.53
2022-10-14T14:05:20.819Z,5.90
2022-10-14T14:10:51.415Z,5.23
2022-10-14T14:13:25.367Z,5.97
2022-10-14T14:15:55.343Z,5.83
2022-10-14T14:18:49.509Z,6.00
2022-10-14T14:21:28.525Z,5.73
2022-10-14T14:25:12.574Z,5.47
2022-10-14T14:28:09.369Z,6.40
2022-10-14T14:34:32.688Z,4.63
2022-10-14T14:44:24.511Z,6.30
2022-10-14T14:47:42.848Z,4.63
2022-10-14T14:51:01.395Z,6.67
2022-10-14T15:00:37.662Z,6.53
2022-10-14T15:04:13.196Z,7.03
2022-10-14T15:08:22.091Z,6.80
2022-10-14T15:11:00.824Z,6.93
2022-10-14T15:20:44.150Z,6.27
2022-10-14T15:27:01.763Z,6.40
2022-10-14T16:13:06.353Z,7.23
2022-10-14T16:15:39.168Z,7.37
2022-10-14T16:18:06.218Z,7.27
2022-10-14T16:20:33.450Z,6.97
2022-10-14T16:23:04.427Z,7.17
2022-10-14T16:25:39.011Z,7.73
2022-10-14T16:28:10.164Z,6.70
2022-10-14T16:30:40.265Z,9.40
2022-10-14T16:33:07.706Z,7.43
2022-10-14T16:35:34.757Z,8.17
2022-10-14T16:38:01.899Z,7.97
2022-10-14T16:40:31.839Z,7.33
2022-10-14T16:43:01.111Z,8.53
2022-10-14T16:45:28.156Z,7.87
2022-10-14T16:47:55.137Z,7.47
2022-10-14T16:50:22.668Z,7.30
2022-10-14T16:53:08.498Z,7.73
2022-10-14T16:55:35.623Z,7.53
2022-10-14T16:58:03.018Z,8.37
2022-10-14T17:00:30.120Z,8.43
2022-10-14T17:02:57.145Z,8.00
2022-10-14T17:05:24.549Z,8.87
2022-10-14T17:07:52.528Z,9.03
2022-10-14T17:10:21.394Z,9.20
2022-10-14T17:12:48.515Z,8.10
2022-10-14T17:15:15.491Z,7.87
2022-10-14T17:17:42.420Z,9.37
2022-10-14T17:20:09.787Z,15.10
2022-10-14T17:22:37.026Z,9.50
2022-10-14T17:25:05.267Z,9.30
2022-10-14T17:27:32.279Z,10.23
2022-10-14T17:29:59.572Z,9.47
2022-10-14T17:32:28.360Z,9.83
2022-10-14T17:34:55.673Z,10.90
2022-10-14T17:37:22.932Z,10.73
2022-10-14T17:39:49.877Z,10.10
2022-10-14T17:42:17.053Z,9.97
2022-10-14T17:44:44.128Z,9.43
2022-10-14T17:47:11.396Z,9.00
2022-10-14T17:49:38.702Z,9.03
2022-10-14T17:52:06.468Z,9.53
2022-10-14T17:54:33.473Z,9.83
2022-10-14T17:57:00.479Z,10.30
2022-10-14T17:59:27.705Z,11.13
2022-10-14T18:02:02.645Z,10.90
2022-10-14T18:04:30.771Z,10.43
2022-10-14T18:06:59.093Z,11.67
2022-10-14T18:09:26.069Z,10.47
2022-10-14T18:12:09.921Z,10.17
2022-10-14T18:14:38.227Z,9.53
2022-10-14T18:17:05.389Z,13.03
2022-10-14T18:19:32.835Z,11.33
2022-10-14T18:21:59.836Z,12.50
2022-10-14T18:24:27.088Z,10.80
2022-10-14T18:26:54.062Z,12.40
2022-10-14T18:29:21.226Z,12.53
2022-10-14T18:31:53.416Z,13.40
2022-10-14T18:34:22.433Z,11.33
2022-10-14T18:36:49.698Z,11.00
2022-10-14T18:39:16.764Z,12.30
2022-10-14T18:41:44.041Z,11.67
2022-10-14T18:44:14.398Z,11.20
2022-10-14T18:46:41.448Z,13.27
2022-10-14T18:49:11.456Z,13.93
2022-10-14T18:51:40.273Z,11.33
2022-10-14T18:54:23.970Z,13.33
2022-10-14T18:56:50.869Z,11.17
2022-10-14T18:59:30.285Z,15.33
2022-10-14T19:02:00.052Z,12.97
2022-10-14T19:04:28.226Z,11.67
2022-10-14T19:06:55.322Z,11.00
2022-10-14T19:09:24.907Z,12.00
2022-10-14T19:11:53.802Z,10.97
2022-10-14T19:14:22.245Z,10.80
2022-10-14T19:16:50.669Z,10.70
2022-10-14T19:19:21.267Z,10.73
2022-10-14T19:21:53.707Z,9.97
2022-10-14T19:24:20.788Z,10.60
2022-10-14T19:26:48.073Z,10.10
2022-10-14T19:29:16.136Z,10.73
2022-10-14T19:31:44.260Z,10.90
2022-10-14T19:34:14.839Z,9.23
2022-10-14T19:36:43.094Z,11.03
2022-10-14T19:39:16.477Z,10.27
2022-10-14T19:41:45.114Z,11.07
2022-10-14T19:44:15.177Z,13.73
2022-10-14T19:46:42.791Z,9.77
2022-10-14T19:49:12.376Z,9.50
2022-10-14T19:51:39.909Z,10.03
2022-10-14T19:54:07.081Z,10.10
2022-10-14T19:56:34.139Z,9.80
2022-10-14T19:59:01.934Z,9.97
2022-10-14T20:01:30.885Z,10.70
2022-10-14T20:04:00.677Z,9.60
2022-10-14T20:06:31.631Z,10.47
2022-10-14T20:08:58.471Z,10.00
2022-10-14T20:11:25.829Z,9.17
2022-10-14T20:13:52.860Z,10.57
2022-10-14T20:16:19.827Z,9.87
2022-10-14T20:18:46.844Z,9.83
2022-10-14T20:21:15.428Z,8.80
2022-10-14T20:23:43.451Z,9.93
2022-10-14T20:26:21.696Z,9.43
2022-10-14T20:28:49.939Z,8.67
2022-10-14T20:31:19.725Z,9.13
2022-10-14T20:33:47.201Z,8.30
2022-10-14T20:36:18.277Z,8.87
2022-10-14T20:38:48.008Z,10.07
2022-10-14T20:41:24.063Z,9.00
2022-10-14T20:43:52.503Z,8.07
2022-10-14T20:46:26.005Z,8.30
2022-10-14T20:48:57.387Z,8.70
2022-10-14T20:51:24.471Z,7.60
2022-10-14T20:54:00.376Z,8.53
2022-10-14T20:56:31.401Z,8.50
2022-10-14T20:59:00.208Z,9.00
2022-10-14T21:01:29.143Z,8.33
2022-10-14T21:03:56.373Z,8.40
2022-10-14T21:06:24.480Z,7.90
2022-10-14T21:08:52.524Z,7.83
2022-10-14T21:11:23.227Z,7.87
2022-10-14T21:13:55.182Z,7.37
2022-10-14T21:16:25.125Z,8.00
2022-10-14T21:18:58.191Z,7.47
2022-10-14T21:21:28.002Z,7.67
2022-10-14T21:23:55.742Z,6.33
2022-10-14T21:26:23.014Z,8.80
2022-10-14T21:28:50.168Z,7.90
2022-10-14T21:31:19.252Z,7.80
2022-10-14T21:33:48.064Z,6.93
2022-10-14T21:36:16.862Z,6.90
2022-10-14T21:38:43.875Z,7.30
2022-10-14T21:41:11.381Z,7.63
2022-10-14T21:43:39.248Z,6.77
2022-10-14T21:46:12.032Z,7.33
2022-10-14T21:48:40.199Z,6.73
2022-10-14T21:51:14.243Z,6.40
2022-10-14T21:53:42.351Z,6.30
2022-10-14T21:56:12.819Z,7.03
2022-10-14T21:58:40.196Z,6.73
2022-10-14T22:01:13.194Z,6.90
2022-10-14T22:03:41.148Z,6.77
2022-10-14T22:06:11.098Z,6.00
2022-10-14T22:08:41.629Z,6.87
2022-10-14T22:11:16.586Z,6.10
2022-10-14T22:13:43.818Z,5.67
2022-10-14T22:16:10.795Z,5.80
2022-10-14T22:18:37.985Z,6.07
2022-10-14T22:21:07.201Z,6.53
2022-10-14T22:23:34.556Z,6.47
2022-10-14T22:26:04.563Z,7.07
2022-10-14T22:28:32.452Z,5.83
2022-10-14T22:31:11.631Z,7.70
2022-10-14T22:33:40.207Z,6.27
2022-10-14T22:36:11.788Z,6.63
2022-10-14T22:38:41.302Z,6.87
2022-10-14T22:41:09.909Z,6.93
2022-10-14T22:43:37.577Z,5.97
2022-10-14T22:46:07.349Z,6.90
2022-10-14T22:48:35.557Z,5.40
2022-10-14T22:51:10.963Z,6.77
2022-10-14T22:53:39.580Z,6.57
2022-10-14T22:56:08.291Z,6.43
2022-10-14T22:58:35.654Z,6.20
2022-10-14T23:01:21.594Z,7.03
2022-10-14T23:03:49.351Z,6.50
2022-10-14T23:06:16.739Z,7.83
2022-10-14T23:08:44.153Z,7.17
2022-10-14T23:11:17.649Z,8.30
2022-10-14T23:13:44.876Z,7.80
2022-10-14T23:16:14.893Z,6.80
2022-10-14T23:21:21.722Z,6.40
2022-10-14T23:23:50.098Z,7.37
2022-10-14T23:26:21.435Z,6.93
2022-10-14T23:28:59.617Z,6.67
2022-10-14T23:31:29.111Z,6.00
2022-10-14T23:33:59.161Z,6.70
2022-10-14T23:36:26.189Z,8.17
2022-10-14T23:38:53.281Z,7.03
2022-10-14T23:41:22.323Z,7.40
2022-10-14T23:43:50.764Z,7.13
2022-10-14T23:46:18.259Z,7.73
2022-10-14T23:48:51.513Z,6.37
2022-10-14T23:51:28.032Z,6.60
2022-10-14T23:53:54.967Z,7.63
2022-10-14T23:56:21.835Z,7.97
2022-10-14T23:58:48.984Z,7.30
